Time;durP1;ratioP1;P1;durP2;ratioP2;P2;SDS_P1;SDS_P2;PMS_P1;PMS_P2;Temp;Humidity;BMP_temperature;BMP_pressure;BME280_temperature;BME280_humidity;BME280_pressure;Samples;Min_cycle;Max_cycle;Signal;HPM_P1;HPM_P2
2023/01/28 00:00:33;;;;;;;16.98;8.15;;;;;;;13.83;57.21;102792.63;5061591;28;20233;-50
2023/01/28 00:02:59;;;;;;;10.55;6.10;;;;;;;13.98;56.82;102792.78;5061811;28;20036;-51
2023/01/28 00:05:24;;;;;;;12.43;6.23;;;;;;;14.00;56.89;102793.44;5059915;28;20112;-52
2023/01/28 00:07:50;;;;;;;10.67;5.87;;;;;;;13.82;56.88;102789.06;5061196;28;20029;-48
2023/01/28 00:10:16;;;;;;;11.88;6.15;;;;;;;13.60;57.39;102796.81;5059424;28;20104;-51
2023/01/28 00:12:42;;;;;;;13.60;7.20;;;;;;;13.75;57.04;102801.53;5063624;28;20037;-53
2023/01/28 00:15:08;;;;;;;13.52;7.68;;;;;;;13.73;57.23;102790.09;5059346;28;20062;-50
2023/01/28 00:17:35;;;;;;;14.43;7.75;;;;;;;13.76;57.09;102781.69;5057300;28;20036;-52
2023/01/28 00:20:02;;;;;;;11.65;6.35;;;;;;;13.66;57.22;102787.25;5060717;28;20024;-51
2023/01/28 00:22:28;;;;;;;10.55;5.95;;;;;;;13.83;56.83;102790.75;5058550;28;20029;-54
2023/01/28 00:24:53;;;;;;;12.23;6.63;;;;;;;14.00;56.32;102793.44;5060630;28;20044;-53
2023/01/28 00:27:19;;;;;;;13.60;8.13;;;;;;;14.07;56.19;102791.75;5060091;28;20025;-52
2023/01/28 00:29:44;;;;;;;12.27;6.83;;;;;;;14.20;55.99;102794.75;5059992;28;20270;-52
2023/01/28 00:32:11;;;;;;;11.48;6.95;;;;;;;14.19;55.72;102790.38;5059382;28;20025;-54
2023/01/28 00:34:37;;;;;;;10.68;6.70;;;;;;;14.17;55.76;102795.09;5059947;28;20115;-52
2023/01/28 00:37:05;;;;;;;15.68;7.63;;;;;;;14.11;55.69;102790.41;5057377;28;20049;-52
2023/01/28 00:39:32;;;;;;;14.93;7.72;;;;;;;13.97;55.88;102789.25;5059587;28;20045;-49
2023/01/28 00:41:59;;;;;;;13.23;7.45;;;;;;;13.91;55.77;102796.16;5062052;28;20021;-54
2023/01/28 00:44:26;;;;;;;11.85;6.60;;;;;;;14.00;55.77;102791.59;5058885;28;20067;-50
2023/01/28 00:46:52;;;;;;;10.80;6.30;;;;;;;13.99;55.57;102797.13;5058452;28;20037;-51
2023/01/28 00:49:20;;;;;;;13.70;6.63;;;;;;;14.04;55.50;102800.16;5059291;28;20091;-49
2023/01/28 00:51:47;;;;;;;12.27;6.72;;;;;;;13.97;55.14;102810.78;5061038;28;20041;-53
2023/01/28 00:54:14;;;;;;;12.65;6.55;;;;;;;14.01;55.19;102806.72;5059520;28;21408;-53
2023/01/28 00:56:40;;;;;;;11.93;6.75;;;;;;;14.01;55.18;102806.72;5056371;28;20044;-52
2023/01/28 00:59:05;;;;;;;11.03;6.63;;;;;;;14.12;55.08;102802.84;5057781;28;20037;-49
2023/01/28 01:01:31;;;;;;;10.23;5.93;;;;;;;14.04;55.26;102808.22;5059078;28;20060;-51
2023/01/28 01:04:01;;;;;;;13.90;6.95;;;;;;;14.06;55.07;102803.50;5055641;28;20041;-51
2023/01/28 01:06:34;;;;;;;12.85;6.75;;;;;;;14.03;55.14;102810.09;5060439;28;20044;-53
2023/01/28 01:09:00;;;;;;;13.38;7.53;;;;;;;14.02;55.02;102807.56;5059231;28;20032;-49
2023/01/28 01:11:26;;;;;;;12.48;7.00;;;;;;;13.92;55.14;102807.72;5061826;28;20045;-48
2023/01/28 01:13:57;;;;;;;13.50;7.00;;;;;;;13.99;55.13;102802.53;5062332;28;20048;-51
2023/01/28 01:16:28;;;;;;;15.95;7.55;;;;;;;14.04;55.18;102800.16;5058874;28;20026;-50
2023/01/28 01:18:55;;;;;;;12.32;7.68;;;;;;;13.99;55.48;102791.75;5059099;28;20060;-51
2023/01/28 01:21:23;;;;;;;;;;;;;;;13.94;55.18;102794.13;5059697;28;20033;-50
2023/01/28 01:23:48;;;;;;;14.93;7.13;;;;;;;14.03;55.08;102798.47;5062157;28;19924;-50
2023/01/28 01:26:14;;;;;;;15.52;7.40;;;;;;;14.01;55.03;102803.19;5063110;28;20055;-52
2023/01/28 01:28:40;;;;;;;14.10;7.40;;;;;;;14.00;55.06;102798.81;5062538;28;20030;-52
2023/01/28 01:31:09;;;;;;;13.93;7.72;;;;;;;13.97;55.09;102809.91;5058368;28;20116;-53
2023/01/28 01:33:35;;;;;;;14.48;7.32;;;;;;;14.03;55.04;102809.22;5062252;28;20041;-51
2023/01/28 01:36:01;;;;;;;13.25;6.95;;;;;;;14.13;54.91;102798.28;5060891;28;20049;-51
2023/01/28 01:38:28;;;;;;;16.55;8.38;;;;;;;14.02;55.06;102805.72;5061833;28;20034;-51
2023/01/28 01:41:00;;;;;;;16.42;7.65;;;;;;;14.02;54.90;102802.19;5062231;28;20025;-53
2023/01/28 01:43:46;;;;;;;15.48;7.25;;;;;;;14.04;55.05;102798.31;5060852;28;20060;-54
2023/01/28 01:46:13;;;;;;;15.50;7.80;;;;;;;13.96;55.10;102800.19;5060024;28;20064;-49
2023/01/28 01:48:38;;;;;;;;;;;;;;;14.00;55.10;102805.06;5063030;28;20064;-50
2023/01/28 01:51:11;;;;;;;12.50;6.20;;;;;;;13.89;55.15;102798.16;5058415;28;19913;-54
2023/01/28 01:53:41;;;;;;;16.95;8.02;;;;;;;13.86;55.46;102795.81;5050657;28;20033;-49
2023/01/28 01:56:11;;;;;;;17.05;8.40;;;;;;;13.82;55.44;102805.22;5060871;28;20068;-52
2023/01/28 01:58:42;;;;;;;15.43;7.85;;;;;;;13.74;55.53;102808.78;5059880;28;20056;-53
2023/01/28 02:01:09;;;;;;;14.63;7.28;;;;;;;13.79;55.27;102808.25;5061189;28;20033;-53
2023/01/28 02:03:54;;;;;;;14.70;7.68;;;;;;;13.79;55.22;102810.94;5059802;28;20029;-55
2023/01/28 02:06:21;;;;;;;14.90;7.13;;;;;;;13.90;55.13;102810.59;5059390;28;20026;-50
2023/01/28 02:08:46;;;;;;;;;;;;;;;13.85;55.18;102807.59;5062324;28;20033;-53
2023/01/28 02:11:14;;;;;;;13.47;6.90;;;;;;;13.76;55.11;102808.59;5057313;28;19917;-53
2023/01/28 02:13:43;;;;;;;15.32;6.90;;;;;;;13.82;55.12;102807.91;5059058;28;20052;-53
2023/01/28 02:16:10;;;;;;;14.95;7.38;;;;;;;13.81;55.22;102816.16;5060555;28;20044;-54
2023/01/28 02:18:36;;;;;;;14.50;7.43;;;;;;;13.69;55.61;102815.66;5062675;28;20116;-50
2023/01/28 02:21:35;;;;;;;15.97;7.57;;;;;;;13.57;55.99;102805.22;5055713;28;20037;-50
2023/01/28 02:24:39;;;;;;;14.68;7.65;;;;;;;13.61;55.60;102811.97;5061303;28;20803;-51
2023/01/28 02:27:30;;;;;;;15.05;8.38;;;;;;;13.83;55.05;102808.75;5059851;28;20072;-53
2023/01/28 02:30:06;;;;;;;15.35;7.68;;;;;;;13.55;55.34;102804.53;5056016;28;20045;-51
2023/01/28 02:32:41;;;;;;;16.88;7.90;;;;;;;13.65;55.04;102801.69;5061322;28;20052;-53
2023/01/28 02:35:17;;;;;;;13.95;7.47;;;;;;;13.60;54.82;102806.75;5059753;28;20044;-54
2023/01/28 02:37:51;;;;;;;16.60;7.80;;;;;;;13.59;54.80;102810.44;5058792;28;20037;-52
2023/01/28 02:40:28;;;;;;;12.55;6.53;;;;;;;13.56;54.60;102816.97;5057015;28;20026;-51
2023/01/28 02:42:56;;;;;;;13.52;7.65;;;;;;;13.58;54.60;102814.97;5065721;28;20033;-53
2023/01/28 02:48:19;;;;;;;13.48;7.00;;;;;;;13.31;54.72;102806.16;5056485;28;20041;-51
2023/01/28 02:51:03;;;;;;;11.68;6.45;;;;;;;13.38;54.55;102809.03;5061346;28;20040;-51
2023/01/28 02:53:58;;;;;;;13.90;7.22;;;;;;;13.30;54.52;102807.19;5056546;28;20037;-49
2023/01/28 02:56:58;;;;;;;13.70;7.07;;;;;;;13.21;54.47;102800.13;5050583;28;20443;-53
2023/01/28 02:59:35;;;;;;;12.95;6.68;;;;;;;13.26;54.41;102813.03;5060960;28;20025;-50
2023/01/28 03:02:14;;;;;;;14.63;7.30;;;;;;;13.26;54.37;102810.34;5057229;28;20032;-51
2023/01/28 03:04:48;;;;;;;12.50;6.53;;;;;;;13.22;54.18;102814.38;5055460;28;20061;-53
2023/01/28 03:07:18;;;;;;;15.07;7.00;;;;;;;13.24;54.19;102823.09;5060229;28;20063;-52
2023/01/28 03:09:47;;;;;;;13.57;6.28;;;;;;;13.19;54.00;102819.06;5056649;28;20033;-53
2023/01/28 03:38:40;;;;;;;14.55;7.63;;;;;;;14.46;50.24;102809.81;5060552;28;20097;-50
2023/01/28 03:41:11;;;;;;;12.57;7.05;;;;;;;14.57;49.90;102815.84;5056463;28;20101;-54
2023/01/28 03:43:37;;;;;;;13.98;6.43;;;;;;;13.79;51.18;102810.94;5056887;28;20060;-51
2023/01/28 03:46:05;;;;;;;13.85;6.65;;;;;;;14.11;51.06;102811.06;5059871;28;20073;-50
2023/01/28 03:48:31;;;;;;;14.98;8.00;;;;;;;14.05;51.15;102812.59;5058503;28;20049;-51
2023/01/28 03:50:59;;;;;;;15.02;7.43;;;;;;;14.48;50.19;102821.25;5059301;28;20049;-51
2023/01/28 03:53:27;;;;;;;15.20;8.75;;;;;;;14.23;50.84;102816.94;5062442;28;20048;-49
2023/01/28 03:55:55;;;;;;;13.02;7.07;;;;;;;14.22;50.85;102826.03;5064126;28;20040;-51
2023/01/28 03:58:25;;;;;;;15.10;7.35;;;;;;;14.28;50.95;102822.66;5066563;28;20097;-49
2023/01/28 04:00:52;;;;;;;14.27;7.05;;;;;;;13.72;51.60;102831.44;5060671;28;20044;-52
2023/01/28 04:03:20;;;;;;;14.80;7.68;;;;;;;13.74;51.76;102832.97;5066768;28;20030;-53
2023/01/28 04:06:07;;;;;;;13.98;7.32;;;;;;;13.65;52.13;102833.13;5064563;28;20048;-53
2023/01/28 04:08:52;;;;;;;15.70;7.65;;;;;;;13.69;52.11;102835.31;5061771;28;20043;-52
2023/01/28 04:11:41;;;;;;;13.63;7.85;;;;;;;14.20;51.37;102829.72;5055138;28;20040;-55
2023/01/28 04:14:08;;;;;;;14.73;7.20;;;;;;;14.28;51.25;102834.25;5063573;28;20032;-48
2023/01/28 04:16:45;;;;;;;;;;;;;;;13.39;52.94;102828.72;5062360;28;20052;-54
2023/01/28 04:19:12;;;;;;;14.03;6.90;;;;;;;13.64;52.74;102832.28;5059736;28;19917;-50
2023/01/28 04:21:38;;;;;;;16.55;7.93;;;;;;;13.45;53.29;102828.06;5063294;28;20028;-51
2023/01/28 04:24:04;;;;;;;15.18;7.30;;;;;;;13.33;53.56;102824.81;5064029;28;20041;-54
2023/01/28 04:26:30;;;;;;;14.30;7.18;;;;;;;13.40;53.58;102827.69;5061880;28;20041;-54
2023/01/28 04:28:56;;;;;;;13.77;7.20;;;;;;;13.55;53.33;102822.53;5063205;28;20048;-49
2023/01/28 04:31:22;;;;;;;15.90;8.37;;;;;;;13.64;52.78;102828.75;5059192;28;20059;-50
2023/01/28 04:33:58;;;;;;;13.95;6.93;;;;;;;13.72;52.60;102834.97;5063492;28;20033;-53
2023/01/28 04:36:36;;;;;;;14.45;7.72;;;;;;;14.03;51.62;102830.75;5056791;28;20039;-53
2023/01/28 04:39:20;;;;;;;17.45;7.07;;;;;;;13.59;52.19;102827.41;5061193;28;20151;-54
2023/01/28 04:42:04;;;;;;;14.27;7.78;;;;;;;14.01;51.36;102832.78;5058292;28;20121;-52
2023/01/28 04:44:48;;;;;;;15.90;7.80;;;;;;;13.48;51.90;102841.16;5054946;28;20036;-55
2023/01/28 04:47:32;;;;;;;14.60;7.50;;;;;;;13.39;52.56;102845.66;5054096;28;20063;-52
2023/01/28 04:50:11;;;;;;;14.63;7.65;;;;;;;13.18;52.94;102844.25;5055847;28;20108;-55
2023/01/28 04:52:51;;;;;;;15.38;7.35;;;;;;;13.15;53.00;102851.81;5058881;28;20029;-50
2023/01/28 04:55:38;;;;;;;15.85;8.07;;;;;;;13.22;52.84;102852.84;5064598;28;20131;-52
2023/01/28 04:58:04;;;;;;;14.13;7.55;;;;;;;13.21;52.53;102853.84;5065915;28;20092;-52
2023/01/28 05:00:31;;;;;;;15.48;8.30;;;;;;;13.88;51.29;102857.50;5068229;28;20034;-52
2023/01/28 05:02:56;;;;;;;18.00;8.77;;;;;;;13.91;51.68;102855.31;5064692;28;20064;-51
2023/01/28 05:05:23;;;;;;;17.70;8.15;;;;;;;13.48;52.11;102851.94;5069936;28;20029;-55
2023/01/28 05:07:56;;;;;;;17.08;8.38;;;;;;;13.57;52.51;102858.97;5060143;28;20093;-52
2023/01/28 05:10:23;;;;;;;15.70;8.20;;;;;;;14.17;51.89;102854.28;5065966;28;20060;-53
2023/01/28 05:12:48;;;;;;;17.20;8.60;;;;;;;13.49;53.15;102850.91;5064290;28;20040;-52
2023/01/28 05:15:16;;;;;;;16.67;8.80;;;;;;;13.57;53.62;102842.84;5067260;28;20029;-54
2023/01/28 05:17:42;;;;;;;16.23;8.15;;;;;;;13.36;54.06;102839.75;5065629;28;20048;-51
2023/01/28 05:20:13;;;;;;;17.42;8.75;;;;;;;14.11;53.04;102848.75;5069917;28;20028;-51
2023/01/28 05:22:39;;;;;;;15.93;8.05;;;;;;;14.23;53.01;102841.16;5066729;28;20060;-50
2023/01/28 05:25:14;;;;;;;20.08;8.50;;;;;;;14.04;53.29;102843.19;5066119;28;20031;-55
2023/01/28 05:27:40;;;;;;;17.87;9.03;;;;;;;14.11;53.15;102830.75;5065149;28;20036;-50
2023/01/28 05:30:06;;;;;;;16.37;7.73;;;;;;;14.22;52.87;102831.41;5066739;28;20307;-52
2023/01/28 05:32:32;;;;;;;16.38;8.30;;;;;;;14.20;52.58;102826.22;5063867;28;20149;-52
2023/01/28 05:34:57;;;;;;;17.05;8.43;;;;;;;14.02;52.70;102824.56;5064106;28;20056;-54
2023/01/28 05:37:24;;;;;;;15.50;8.57;;;;;;;13.86;52.60;102841.53;5071032;28;20037;-48
2023/01/28 05:39:53;;;;;;;16.58;7.82;;;;;;;14.05;51.83;102844.88;5061566;28;20035;-50
2023/01/28 05:42:21;;;;;;;16.58;8.27;;;;;;;13.77;52.06;102832.63;5065554;28;20041;-54
2023/01/28 05:44:50;;;;;;;15.48;8.57;;;;;;;13.48;51.83;102838.47;5066805;28;20477;-49
2023/01/28 05:47:22;;;;;;;15.40;7.78;;;;;;;13.85;51.38;102856.00;5067701;28;20056;-48
2023/01/28 05:49:48;;;;;;;14.37;6.87;;;;;;;13.30;51.94;102843.97;5071572;28;20045;-48
2023/01/28 05:52:32;;;;;;;14.18;7.85;;;;;;;13.15;51.99;102846.44;5066590;28;20048;-50
2023/01/28 05:55:00;;;;;;;14.82;7.95;;;;;;;13.00;52.05;102847.06;5065527;28;20037;-49
2023/01/28 05:57:26;;;;;;;13.70;7.25;;;;;;;12.96;52.20;102845.72;5068171;28;20048;-53
2023/01/28 05:59:51;;;;;;;17.70;8.00;;;;;;;12.88;52.09;102837.59;5069017;28;20040;-53
2023/01/28 06:02:17;;;;;;;14.27;7.43;;;;;;;12.84;51.91;102834.41;5070182;28;20041;-53
2023/01/28 06:04:42;;;;;;;16.63;8.17;;;;;;;13.62;50.89;102840.53;5064414;28;20053;-52
2023/01/28 06:07:08;;;;;;;14.52;7.57;;;;;;;13.87;50.44;102845.91;5060659;28;20274;-54
2023/01/28 06:09:36;;;;;;;13.90;7.55;;;;;;;13.91;50.19;102838.34;5066309;28;20059;-53
2023/01/28 06:12:02;;;;;;;18.17;8.13;;;;;;;13.43;50.36;102840.84;5064198;28;20037;-50
2023/01/28 06:14:31;;;;;;;15.82;7.95;;;;;;;13.17;51.09;102844.44;5064038;28;20043;-49
2023/01/28 06:17:07;;;;;;;15.63;7.97;;;;;;;12.89;51.48;102842.81;5060753;28;20040;-53
2023/01/28 06:19:53;;;;;;;14.68;7.72;;;;;;;12.96;50.95;102843.03;5061763;28;20051;-50
2023/01/28 06:22:18;;;;;;;11.60;6.37;;;;;;;13.59;50.02;102850.75;5064239;28;20104;-53
2023/01/28 06:24:44;;;;;;;13.80;7.22;;;;;;;13.39;49.99;102844.84;5060321;28;20029;-56
2023/01/28 06:27:09;;;;;;;13.97;7.50;;;;;;;13.69;49.07;102840.69;5061989;28;20053;-53
2023/01/28 06:29:35;;;;;;;15.27;7.80;;;;;;;14.08;48.87;102838.31;5068935;28;20033;-51
2023/01/28 06:32:00;;;;;;;15.07;7.60;;;;;;;13.89;49.05;102846.59;5060242;28;20290;-51
2023/01/28 06:34:26;;;;;;;15.13;8.00;;;;;;;13.25;49.60;102844.44;5064083;28;20030;-51
2023/01/28 06:36:52;;;;;;;15.13;7.60;;;;;;;13.01;50.25;102839.84;5060112;28;20041;-53
2023/01/28 06:39:20;;;;;;;14.25;7.57;;;;;;;13.00;50.37;102841.69;5061995;28;20057;-53
2023/01/28 06:41:46;;;;;;;13.48;6.00;;;;;;;12.42;54.02;102837.91;5064001;28;20041;-49
2023/01/28 06:44:12;;;;;;;15.98;8.43;;;;;;;13.31;51.37;102845.66;5064535;28;20041;-48
2023/01/28 06:46:38;;;;;;;17.08;8.55;;;;;;;12.86;51.33;102842.31;5063988;28;20033;-52
2023/01/28 06:49:03;;;;;;;14.57;8.13;;;;;;;12.87;51.25;102854.72;5063446;28;20037;-51
2023/01/28 06:51:29;;;;;;;14.63;7.82;;;;;;;12.87;51.42;102854.72;5063468;28;20059;-53
2023/01/28 06:53:55;;;;;;;14.03;7.73;;;;;;;12.85;51.23;102854.03;5065687;28;20091;-50
2023/01/28 06:56:20;;;;;;;16.47;8.73;;;;;;;12.77;51.01;102847.66;5063352;28;20029;-55
2023/01/28 06:58:46;;;;;;;15.57;7.63;;;;;;;12.93;50.40;102850.56;5062609;28;20354;-50
2023/01/28 07:01:11;;;;;;;14.60;7.65;;;;;;;12.83;50.51;102856.06;5059691;28;20032;-51
2023/01/28 07:03:37;;;;;;;13.73;7.70;;;;;;;13.19;49.60;102870.13;5065630;28;20073;-51
2023/01/28 07:06:02;;;;;;;15.67;7.57;;;;;;;14.28;48.08;102876.47;5062352;28;20033;-49
2023/01/28 07:08:28;;;;;;;14.38;7.20;;;;;;;13.10;49.80;102879.16;5062026;28;20033;-50
2023/01/28 07:10:53;;;;;;;15.77;7.60;;;;;;;13.03;49.67;102878.97;5062957;28;20108;-49
2023/01/28 07:13:19;;;;;;;12.60;6.67;;;;;;;12.89;50.34;102882.25;5058511;28;20038;-50
2023/01/28 07:15:44;;;;;;;14.97;7.07;;;;;;;12.79;50.11;102889.59;5059088;28;20030;-49
2023/01/28 07:18:09;;;;;;;12.50;6.73;;;;;;;12.90;49.87;102889.31;5062366;28;20060;-51
2023/01/28 07:20:35;;;;;;;15.97;7.63;;;;;;;12.97;49.82;102879.63;5056894;28;20105;-52
2023/01/28 07:23:00;;;;;;;16.00;7.87;;;;;;;12.85;50.48;102889.81;5063998;28;20035;-51
2023/01/28 07:25:26;;;;;;;14.00;7.50;;;;;;;13.20;49.86;102903.22;5061289;28;20060;-51
2023/01/28 07:27:52;;;;;;;16.23;8.13;;;;;;;12.88;50.44;102904.75;5059613;28;20274;-48
2023/01/28 07:30:19;;;;;;;13.20;7.47;;;;;;;12.84;50.52;102890.81;5062867;28;20093;-54
2023/01/28 07:32:45;;;;;;;12.68;7.45;;;;;;;13.18;50.16;102897.16;5062223;28;20037;-52
2023/01/28 07:35:12;;;;;;;15.50;7.55;;;;;;;13.29;49.63;102896.84;5057706;28;20060;-53
2023/01/28 07:37:37;;;;;;;;;;;;;;;13.24;49.45;102901.03;5063380;28;20044;-49
2023/01/28 07:40:03;;;;;;;10.60;5.97;;;;;;;13.22;49.25;102897.66;5060750;28;19917;-52
2023/01/28 07:42:29;;;;;;;11.70;6.53;;;;;;;13.22;49.09;102892.28;5057417;28;20051;-51
2023/01/28 07:44:56;;;;;;;15.52;8.13;;;;;;;13.30;49.29;102898.53;5044279;28;20033;-53
2023/01/28 07:47:21;;;;;;;14.87;7.73;;;;;;;13.31;49.23;102896.72;5061474;28;20216;-52
2023/01/28 07:49:47;;;;;;;13.73;7.60;;;;;;;13.31;49.46;102902.06;5062824;28;20100;-51
2023/01/28 07:52:12;;;;;;;14.70;7.53;;;;;;;13.25;49.48;102914.31;5064904;28;20056;-50
2023/01/28 07:54:37;;;;;;;14.77;8.40;;;;;;;13.15;49.61;102908.25;5061757;28;20275;-48
2023/01/28 07:57:14;;;;;;;13.17;6.83;;;;;;;12.89;49.46;102919.84;5061870;28;20038;-48
2023/01/28 07:59:39;;;;;;;14.38;7.40;;;;;;;13.32;49.21;102925.25;5058047;28;20037;-52
2023/01/28 08:02:05;;;;;;;14.30;7.50;;;;;;;13.39;49.33;102934.34;5055065;28;20048;-49
2023/01/28 08:04:30;;;;;;;12.97;7.33;;;;;;;13.27;49.32;102928.44;5061168;28;20124;-51
2023/01/28 08:06:56;;;;;;;16.60;7.05;;;;;;;13.08;49.97;102926.00;5059365;28;20037;-49
2023/01/28 08:09:21;;;;;;;13.70;7.10;;;;;;;13.30;49.77;102933.47;5055865;28;20045;-52
2023/01/28 08:11:47;;;;;;;13.37;6.80;;;;;;;13.30;49.58;102933.47;5057702;28;20033;-53
2023/01/28 08:14:12;;;;;;;19.63;7.47;;;;;;;13.07;49.97;102921.63;5062372;28;20080;-52
2023/01/28 08:16:38;;;;;;;13.90;7.20;;;;;;;13.29;49.59;102925.59;5064123;28;20309;-49
2023/01/28 08:19:03;;;;;;;13.43;7.03;;;;;;;13.25;49.92;102932.25;5059370;28;20304;-51
2023/01/28 08:21:29;;;;;;;13.43;6.83;;;;;;;12.96;49.81;102937.03;5058973;28;20045;-47
2023/01/28 08:23:55;;;;;;;13.63;6.90;;;;;;;13.23;49.57;102936.97;5062102;28;20096;-50
2023/01/28 08:26:21;;;;;;;14.68;7.05;;;;;;;12.95;49.46;102940.72;5062366;28;20036;-49
2023/01/28 08:28:46;;;;;;;13.57;7.00;;;;;;;13.04;49.41;102958.53;5063983;28;20029;-50
2023/01/28 08:31:12;;;;;;;13.23;5.93;;;;;;;13.50;49.55;102952.06;5059512;28;20040;-52
2023/01/28 08:33:38;;;;;;;15.05;6.55;;;;;;;13.17;50.04;102955.41;5059279;28;20033;-53
2023/01/28 08:36:04;;;;;;;14.20;6.83;;;;;;;13.93;48.31;102953.84;5062451;28;20041;-49
2023/01/28 08:38:30;;;;;;;13.52;6.70;;;;;;;13.58;49.28;102945.84;5060735;28;20028;-53
2023/01/28 08:40:56;;;;;;;15.63;7.83;;;;;;;13.48;49.47;102946.81;5058620;28;20048;-52
2023/01/28 08:43:22;;;;;;;12.93;6.72;;;;;;;13.39;49.68;102949.66;5057596;28;20029;-51
2023/01/28 08:45:47;;;;;;;14.40;7.77;;;;;;;13.18;50.00;102954.41;5060816;28;20025;-52
2023/01/28 08:48:17;;;;;;;15.73;7.43;;;;;;;12.85;50.59;102961.44;5060206;28;20033;-48
2023/01/28 08:50:43;;;;;;;17.85;8.65;;;;;;;13.25;50.13;102953.75;5062118;28;20052;-51
2023/01/28 08:53:11;;;;;;;16.90;7.40;;;;;;;13.44;50.05;102966.16;5056892;28;20033;-53
2023/01/28 08:55:37;;;;;;;16.90;8.25;;;;;;;13.36;50.23;102968.75;5055593;28;20037;-51
2023/01/28 08:58:05;;;;;;;15.73;7.53;;;;;;;13.28;50.41;102956.16;5060737;28;20068;-50
2023/01/28 09:00:32;;;;;;;19.27;8.43;;;;;;;13.34;50.08;102966.25;5060717;28;20029;-51
2023/01/28 09:02:58;;;;;;;16.35;7.85;;;;;;;13.42;49.98;102962.75;5057512;28;20041;-48
2023/01/28 09:05:23;;;;;;;15.57;8.23;;;;;;;13.39;50.07;102969.28;5060951;28;20036;-51
2023/01/28 09:07:49;;;;;;;14.73;7.23;;;;;;;12.71;50.54;102971.78;5063808;28;20036;-52
2023/01/28 09:10:15;;;;;;;13.65;6.70;;;;;;;12.69;51.06;102981.84;5058597;28;20125;-49
2023/01/28 09:12:42;;;;;;;16.05;7.80;;;;;;;12.81;50.84;102981.56;5056150;28;20548;-52
2023/01/28 09:15:08;;;;;;;15.55;7.45;;;;;;;12.79;51.77;102989.78;5059359;28;20044;-50
2023/01/28 09:17:34;;;;;;;16.50;7.22;;;;;;;12.56;51.21;103000.19;5058219;28;20033;-54
2023/01/28 09:19:59;;;;;;;17.65;8.45;;;;;;;12.55;51.36;102996.66;5057078;28;20048;-51
2023/01/28 09:22:25;;;;;;;16.03;7.80;;;;;;;12.86;50.92;103012.31;5054417;28;20029;-54
2023/01/28 09:24:50;;;;;;;16.27;8.03;;;;;;;13.31;50.40;103004.19;5057001;28;20104;-51
2023/01/28 09:27:16;;;;;;;22.27;8.80;;;;;;;13.62;49.93;103007.22;5053716;28;20029;-52
2023/01/28 09:29:42;;;;;;;16.83;7.87;;;;;;;12.93;50.78;103011.69;5058051;28;20060;-54
2023/01/28 09:32:07;;;;;;;13.80;7.07;;;;;;;13.12;50.36;103000.72;5060396;28;20274;-52
2023/01/28 09:34:33;;;;;;;15.23;7.78;;;;;;;13.19;50.37;103007.16;5059750;28;20064;-53
2023/01/28 09:36:59;;;;;;;15.17;7.33;;;;;;;13.03;50.60;102993.59;5056271;28;20042;-52
2023/01/28 09:39:27;;;;;;;16.37;7.93;;;;;;;13.13;50.60;102996.19;5061704;28;20025;-48
2023/01/28 09:42:08;;;;;;;16.23;8.23;;;;;;;13.15;50.59;102999.59;5062658;28;20303;-52
2023/01/28 09:44:40;;;;;;;15.02;7.35;;;;;;;13.10;50.65;103005.44;5058590;28;20089;-50
2023/01/28 09:47:14;;;;;;;15.82;6.95;;;;;;;13.25;50.27;103010.19;5060319;28;20061;-48
2023/01/28 09:49:46;;;;;;;12.57;6.40;;;;;;;13.32;50.14;103017.44;5062787;28;20052;-55
2023/01/28 09:52:14;;;;;;;15.45;7.53;;;;;;;13.26;50.17;103012.72;5059615;28;20053;-51
2023/01/28 09:54:45;;;;;;;18.35;6.90;;;;;;;13.45;49.91;103017.03;5060318;28;20071;-49
2023/01/28 09:57:22;;;;;;;14.80;7.40;;;;;;;13.44;49.58;103014.53;5058149;28;20047;-53
2023/01/28 09:59:48;;;;;;;13.50;6.65;;;;;;;13.52;49.47;103022.63;5057334;28;20060;-51
2023/01/28 10:02:36;;;;;;;23.02;11.95;;;;;;;13.59;49.41;103012.88;5056391;28;20041;-53
2023/01/28 10:05:13;;;;;;;16.45;7.68;;;;;;;14.24;48.59;103020.44;5061486;28;20034;-55
2023/01/28 10:07:48;;;;;;;13.05;6.75;;;;;;;14.28;48.34;103033.41;5062165;28;20033;-56
2023/01/28 10:10:26;;;;;;;13.20;6.90;;;;;;;13.77;48.68;103033.47;5061058;28;20068;-51
2023/01/28 10:12:54;;;;;;;15.13;6.45;;;;;;;13.77;48.85;103026.25;5063540;28;20030;-49
2023/01/28 10:15:39;;;;;;;14.93;7.22;;;;;;;14.01;48.25;103027.31;5061471;28;20040;-53
2023/01/28 10:18:09;;;;;;;13.60;7.18;;;;;;;14.54;47.53;103004.66;5063405;28;20040;-52
2023/01/28 10:20:41;;;;;;;13.55;6.70;;;;;;;14.76;47.25;103006.69;5061766;28;20036;-55
2023/01/28 10:23:34;;;;;;;14.23;6.57;;;;;;;14.96;46.88;103025.16;5061663;28;20063;-54
2023/01/28 10:26:04;;;;;;;13.25;6.28;;;;;;;14.81;47.23;103022.31;5061734;28;20033;-52
2023/01/28 10:28:33;;;;;;;16.65;7.97;;;;;;;14.74;47.16;103024.03;5063482;28;20067;-50
2023/01/28 10:30:58;;;;;;;14.70;7.00;;;;;;;15.08;47.20;103030.22;5060285;28;20033;-53
2023/01/28 10:33:32;;;;;;;9.80;5.03;;;;;;;14.69;47.26;103027.19;5062622;28;20064;-51
2023/01/28 10:35:58;;;;;;;15.10;5.97;;;;;;;15.16;46.57;103022.94;5064808;28;20040;-52
2023/01/28 10:38:25;;;;;;;11.90;6.65;;;;;;;14.59;47.16;103013.06;5065019;28;20044;-53
2023/01/28 10:40:51;;;;;;;11.93;5.70;;;;;;;14.88;46.72;103011.72;5060328;28;20045;-52
2023/01/28 10:43:21;;;;;;;11.32;5.72;;;;;;;15.00;46.48;103004.97;5062804;28;20033;-49
2023/01/28 10:45:57;;;;;;;11.70;5.85;;;;;;;15.34;46.11;103001.16;5057168;28;20033;-48
2023/01/28 10:48:28;;;;;;;12.75;5.80;;;;;;;14.76;46.49;102998.63;5060573;28;20152;-52
2023/01/28 10:51:00;;;;;;;16.55;6.25;;;;;;;16.84;44.83;103010.94;5062472;28;20088;-50
2023/01/28 10:53:43;;;;;;;10.90;6.00;;;;;;;18.85;42.06;103006.13;5055300;28;20093;-53
2023/01/28 10:56:22;;;;;;;9.93;5.47;;;;;;;20.74;39.57;102997.44;5061877;28;20052;-51
2023/01/28 10:59:04;;;;;;;12.07;5.20;;;;;;;22.03;37.18;103000.53;5060733;28;20262;-55
2023/01/28 11:01:49;;;;;;;9.47;5.03;;;;;;;23.54;34.60;103011.44;5057387;28;20263;-53
2023/01/28 11:04:25;;;;;;;7.40;4.27;;;;;;;24.84;33.33;103007.31;5061945;28;20307;-53
2023/01/28 11:07:03;;;;;;;9.05;4.72;;;;;;;24.98;32.03;102984.09;5058554;28;20032;-53
2023/01/28 11:09:33;;;;;;;8.73;5.50;;;;;;;25.37;31.14;102985.38;5058386;28;20653;-52
2023/01/28 11:12:17;;;;;;;14.37;5.70;;;;;;;26.32;29.91;102990.41;5059063;28;20037;-53
2023/01/28 11:14:59;;;;;;;7.77;4.90;;;;;;;26.58;29.29;102997.06;5057957;28;20029;-52
2023/01/28 11:17:28;;;;;;;7.47;4.90;;;;;;;27.25;28.21;102994.41;5055565;28;20029;-56
2023/01/28 11:19:57;;;;;;;8.80;5.50;;;;;;;27.46;28.07;103000.13;5058888;28;20035;-54
2023/01/28 11:22:34;;;;;;;10.00;5.63;;;;;;;27.77;27.53;102997.72;5056041;28;20055;-54
2023/01/28 11:25:33;;;;;;;8.50;5.60;;;;;;;27.64;27.47;102985.22;5056810;28;20167;-55
2023/01/28 11:28:02;;;;;;;9.13;6.00;;;;;;;28.02;26.78;102964.09;5055713;28;20285;-55
2023/01/28 11:30:32;;;;;;;7.43;5.17;;;;;;;28.13;26.73;102955.91;5054607;28;20095;-53
2023/01/28 11:33:03;;;;;;;10.57;5.83;;;;;;;27.90;26.23;102945.03;5056908;28;20033;-53
2023/01/28 11:35:30;;;;;;;9.10;5.37;;;;;;;27.54;26.89;102936.50;5056296;28;20050;-56
2023/01/28 11:38:00;;;;;;;7.80;4.97;;;;;;;27.88;26.43;102936.22;5056526;28;20044;-55
2023/01/28 11:40:26;;;;;;;9.90;5.17;;;;;;;27.46;27.02;102928.69;5054595;28;20041;-56
2023/01/28 11:42:58;;;;;;;7.67;4.93;;;;;;;28.28;26.27;102927.72;5058718;28;20455;-55
2023/01/28 11:45:38;;;;;;;8.17;4.37;;;;;;;27.50;26.08;102905.09;5056872;28;20033;-50
2023/01/28 11:48:24;;;;;;;7.23;5.10;;;;;;;27.42;26.57;102908.31;5056315;28;20044;-51
2023/01/28 11:51:12;;;;;;;7.33;4.13;;;;;;;28.57;25.58;102916.28;5053465;28;20045;-52
2023/01/28 11:54:02;;;;;;;7.20;4.50;;;;;;;28.57;25.20;102919.06;5056931;28;20029;-53
2023/01/28 11:57:08;;;;;;;8.30;5.03;;;;;;;29.00;24.86;102906.03;5056326;28;20022;-55
2023/01/28 11:59:58;;;;;;;10.00;4.43;;;;;;;29.72;24.75;102919.09;5054045;28;20041;-53
2023/01/28 12:02:32;;;;;;;6.28;3.92;;;;;;;29.86;24.03;102919.34;5061491;28;20041;-53